Time;durP1;ratioP1;P1;durP2;ratioP2;P2;SDS_P1;SDS_P2;PMS_P1;PMS_P2;Temp;Humidity;BMP_temperature;BMP_pressure;BME280_temperature;BME280_humidity;BME280_pressure;Samples;Min_cycle;Max_cycle;Signal;HPM_P1;HPM_P2
2022/04/09 00:00:17;;;;;;;10.73;8.25;;;;;;;4.53;67.13;98934.19;5024177;28;20030;-25
2022/04/09 00:02:43;;;;;;;10.10;8.00;;;;;;;4.52;67.79;98930.72;5035536;28;20030;-26
2022/04/09 00:05:11;;;;;;;11.15;8.75;;;;;;;4.52;67.26;98941.16;5023559;28;20033;-26
2022/04/09 00:07:37;;;;;;;10.10;8.38;;;;;;;4.52;67.87;98943.75;5020033;28;20034;-26
2022/04/09 00:10:05;;;;;;;11.90;8.27;;;;;;;4.53;67.39;98949.88;5025174;28;20049;-26
2022/04/09 00:12:30;;;;;;;9.20;7.90;;;;;;;4.52;67.32;98942.88;5028170;28;20029;-26
2022/04/09 00:14:56;;;;;;;10.27;8.88;;;;;;;4.51;67.61;98946.38;5026610;28;20466;-26
2022/04/09 00:17:21;;;;;;;10.98;8.55;;;;;;;4.52;66.86;98948.97;5009461;28;20040;-25
2022/04/09 00:19:48;;;;;;;10.20;8.32;;;;;;;4.53;67.32;98950.72;5024680;28;20026;-26
2022/04/09 00:22:13;;;;;;;11.60;8.50;;;;;;;4.52;67.13;98955.94;5022812;28;20029;-26
2022/04/09 00:24:38;;;;;;;11.80;9.32;;;;;;;4.52;67.37;98954.22;5023960;28;20045;-25
2022/04/09 00:27:04;;;;;;;8.50;7.70;;;;;;;4.54;67.33;98959.41;5024074;28;20414;-26
2022/04/09 00:29:29;;;;;;;12.52;8.93;;;;;;;4.54;67.43;98962.03;5026663;28;20060;-26
2022/04/09 00:31:55;;;;;;;13.57;8.88;;;;;;;4.52;67.68;98974.22;5026261;28;20109;-25
2022/04/09 00:34:20;;;;;;;10.93;9.20;;;;;;;4.52;67.55;98975.09;5025671;28;20083;-26
2022/04/09 00:36:46;;;;;;;9.90;8.82;;;;;;;4.54;67.74;98977.69;5022576;28;20076;-26
2022/04/09 00:39:11;;;;;;;10.50;8.55;;;;;;;4.53;67.82;98987.25;5023046;28;20025;-26
2022/04/09 00:41:40;;;;;;;10.40;8.32;;;;;;;4.54;67.44;98989.00;5024638;28;20030;-26
2022/04/09 00:44:16;;;;;;;11.32;8.88;;;;;;;4.54;67.34;98993.34;5026690;28;20025;-25
2022/04/09 00:46:41;;;;;;;10.23;8.45;;;;;;;4.52;67.33;98998.59;5021216;28;20104;-25
2022/04/09 00:49:07;;;;;;;9.88;8.70;;;;;;;4.53;67.95;98989.88;5026858;28;20145;-26
2022/04/09 00:51:34;;;;;;;11.07;9.10;;;;;;;4.53;68.03;98997.69;5022374;28;20018;-25
2022/04/09 00:54:00;;;;;;;11.13;8.68;;;;;;;4.54;67.04;99003.81;5020205;28;20376;-26
2022/04/09 00:56:25;;;;;;;10.07;8.82;;;;;;;4.53;67.51;99008.16;5024340;28;20033;-23
2022/04/09 00:58:55;;;;;;;10.38;9.20;;;;;;;4.53;67.61;99015.13;5025754;28;20026;-26
2022/04/09 01:01:21;;;;;;;10.15;7.80;;;;;;;4.52;67.74;99014.25;5025353;28;20037;-26
2022/04/09 01:03:48;;;;;;;8.98;8.15;;;;;;;4.51;67.45;99020.38;5009681;28;20037;-26
2022/04/09 01:06:13;;;;;;;9.10;8.20;;;;;;;4.51;67.58;99024.72;5024827;28;20059;-26
2022/04/09 01:08:39;;;;;;;8.88;7.78;;;;;;;4.49;67.30;99033.44;5027563;28;20033;-25
2022/04/09 01:11:04;;;;;;;9.55;7.80;;;;;;;4.49;66.90;99033.44;5026489;28;20083;-26
2022/04/09 01:13:30;;;;;;;8.63;7.68;;;;;;;4.49;67.61;99043.00;5023700;28;20100;-26
2022/04/09 01:15:55;;;;;;;9.50;7.47;;;;;;;4.46;67.27;99043.91;5020929;28;20492;-25
2022/04/09 01:18:21;;;;;;;9.00;8.10;;;;;;;4.46;67.35;99048.25;5022786;28;20660;-26
2022/04/09 01:20:46;;;;;;;9.10;7.47;;;;;;;4.45;67.36;99047.41;5025475;28;20032;-24
2022/04/09 01:23:12;;;;;;;9.95;7.97;;;;;;;4.43;67.07;99053.53;5024899;28;20028;-26
2022/04/09 01:25:38;;;;;;;8.02;7.22;;;;;;;4.42;67.13;99055.28;5024529;28;20033;-25
2022/04/09 01:28:04;;;;;;;8.27;7.47;;;;;;;4.41;67.20;99065.72;5019470;28;20088;-26
2022/04/09 01:30:29;;;;;;;8.30;7.40;;;;;;;4.39;66.67;99068.34;5016914;28;20030;-26
2022/04/09 01:32:55;;;;;;;8.35;7.45;;;;;;;4.37;67.18;99075.34;5024991;28;20051;-26
2022/04/09 01:35:20;;;;;;;9.93;7.40;;;;;;;4.34;66.66;99071.00;5027469;28;20025;-25
2022/04/09 01:37:46;;;;;;;8.27;7.43;;;;;;;4.32;66.57;99075.38;5022859;28;20463;-26
2022/04/09 01:40:11;;;;;;;12.27;7.63;;;;;;;4.33;67.10;99089.28;5023670;28;20319;-26
2022/04/09 01:42:37;;;;;;;8.10;7.30;;;;;;;4.31;67.08;99091.06;5024001;28;20076;-24
2022/04/09 01:45:04;;;;;;;11.00;7.88;;;;;;;4.28;66.71;99101.50;5026106;28;20550;-26
2022/04/09 01:47:30;;;;;;;8.95;8.05;;;;;;;4.26;66.67;99108.50;5019674;28;20492;-26
2022/04/09 01:49:55;;;;;;;9.95;7.80;;;;;;;4.26;67.09;99103.28;5024238;28;20030;-26
2022/04/09 01:52:21;;;;;;;13.45;7.43;;;;;;;4.24;67.46;99106.75;5024906;28;20036;-25
2022/04/09 01:54:46;;;;;;;8.63;7.78;;;;;;;4.20;66.96;99105.03;5026141;28;22087;-26
2022/04/09 01:57:13;;;;;;;11.88;7.50;;;;;;;4.18;66.81;99112.03;5018918;28;20037;-27
2022/04/09 01:59:41;;;;;;;6.95;6.30;;;;;;;4.17;67.12;99110.28;5020726;28;20069;-26
2022/04/09 02:02:08;;;;;;;10.27;7.20;;;;;;;4.15;67.05;99126.84;5028009;28;20092;-25
2022/04/09 02:04:33;;;;;;;8.48;7.57;;;;;;;4.13;67.14;99126.84;5021406;28;20033;-26
2022/04/09 02:06:58;;;;;;;7.68;6.88;;;;;;;4.11;67.48;99131.22;5027453;28;20049;-26
2022/04/09 02:09:24;;;;;;;7.97;6.20;;;;;;;4.08;66.79;99136.47;5029512;28;20040;-25
2022/04/09 02:11:49;;;;;;;8.00;7.20;;;;;;;4.07;66.82;99146.03;5027816;28;20029;-26
2022/04/09 02:14:15;;;;;;;7.82;6.55;;;;;;;4.05;66.87;99141.69;5026901;28;20021;-26
2022/04/09 02:16:41;;;;;;;7.65;6.68;;;;;;;4.03;67.15;99153.91;5025472;28;20387;-26
2022/04/09 02:19:08;;;;;;;8.00;6.38;;;;;;;3.99;66.87;99153.03;5027543;28;20029;-23
2022/04/09 02:21:34;;;;;;;9.43;6.80;;;;;;;3.96;67.17;99156.53;5027378;28;20238;-25
2022/04/09 02:23:59;;;;;;;7.18;6.25;;;;;;;3.96;67.23;99166.97;5022800;28;20033;-25
2022/04/09 02:26:25;;;;;;;7.15;6.28;;;;;;;3.95;67.47;99165.25;5025476;28;20049;-26
2022/04/09 02:28:52;;;;;;;7.10;5.90;;;;;;;3.92;67.54;99169.59;5024120;28;20055;-24
2022/04/09 02:31:17;;;;;;;8.10;6.47;;;;;;;3.90;67.23;99177.44;5025939;28;20033;-26
2022/04/09 02:33:49;;;;;;;11.40;5.47;;;;;;;3.87;67.90;99182.66;5031809;28;20518;-26
2022/04/09 02:36:15;;;;;;;6.25;5.32;;;;;;;3.87;67.41;99182.66;5023098;28;20032;-25
2022/04/09 02:38:42;;;;;;;8.40;5.28;;;;;;;3.85;67.86;99197.47;5024961;28;20399;-26
2022/04/09 02:41:10;;;;;;;9.85;5.25;;;;;;;3.85;68.35;99193.13;5024314;28;20025;-26
2022/04/09 02:43:36;;;;;;;5.78;4.97;;;;;;;3.85;68.24;99202.69;5022049;28;20041;-26
2022/04/09 02:46:02;;;;;;;6.65;4.65;;;;;;;3.84;67.94;99206.19;5025212;28;20110;-25
2022/04/09 02:48:28;;;;;;;6.18;4.57;;;;;;;3.83;68.57;99212.25;5027820;28;20918;-25
2022/04/09 02:50:54;;;;;;;5.40;4.53;;;;;;;3.82;69.17;99223.56;5021810;28;20033;-26
2022/04/09 02:53:19;;;;;;;7.13;4.35;;;;;;;3.83;69.04;99233.13;5024145;28;20032;-25
2022/04/09 02:55:45;;;;;;;6.35;3.83;;;;;;;3.82;69.71;99229.66;5022081;28;20029;-25
2022/04/09 02:58:10;;;;;;;5.75;3.40;;;;;;;3.84;69.41;99242.72;5008820;28;20021;-26
2022/04/09 03:00:35;;;;;;;8.07;4.00;;;;;;;3.82;69.67;99244.44;5024573;28;20033;-25
2022/04/09 03:03:01;;;;;;;7.80;3.53;;;;;;;3.83;69.77;99241.81;5023998;28;20037;-27
2022/04/09 03:05:26;;;;;;;6.13;3.95;;;;;;;3.84;70.22;99253.13;5025933;28;20025;-25
2022/04/09 03:07:52;;;;;;;8.23;3.92;;;;;;;3.84;70.09;99261.81;5029532;28;20021;-25
2022/04/09 03:10:18;;;;;;;5.25;4.00;;;;;;;3.86;69.82;99267.03;5026571;28;20044;-25
2022/04/09 03:12:44;;;;;;;6.28;3.78;;;;;;;3.87;70.53;99268.75;5027246;28;20036;-26
2022/04/09 03:15:10;;;;;;;6.20;4.15;;;;;;;3.88;70.56;99275.72;5023985;28;20050;-24
2022/04/09 03:17:35;;;;;;;4.50;3.80;;;;;;;3.89;70.59;99269.63;5022811;28;20064;-27
2022/04/09 03:20:01;;;;;;;6.13;4.25;;;;;;;3.91;70.95;99280.06;5026152;28;20029;-26
2022/04/09 03:22:28;;;;;;;5.60;3.65;;;;;;;3.93;70.76;99284.38;5023666;28;20091;-26
2022/04/09 03:24:57;;;;;;;10.38;4.43;;;;;;;3.94;70.53;99301.78;5026441;28;20387;-25
2022/04/09 03:27:22;;;;;;;6.07;4.43;;;;;;;3.95;70.58;99300.03;5022952;28;20030;-26
2022/04/09 03:29:48;;;;;;;6.88;3.75;;;;;;;3.98;70.49;99302.63;5027369;28;20400;-25
2022/04/09 03:32:13;;;;;;;7.55;3.45;;;;;;;4.01;69.78;99312.19;5021598;28;20820;-26
2022/04/09 03:34:39;;;;;;;6.60;3.95;;;;;;;4.00;69.91;99313.91;5027655;28;20104;-26
2022/04/09 03:37:04;;;;;;;6.30;3.85;;;;;;;4.01;69.57;99322.63;5024704;28;20480;-26
2022/04/09 03:39:30;;;;;;;9.07;3.72;;;;;;;4.00;69.25;99328.72;5027425;28;20032;-26
2022/04/09 03:41:56;;;;;;;6.38;3.60;;;;;;;4.01;69.22;99323.50;5021987;28;20029;-27
2022/04/09 03:44:21;;;;;;;6.68;3.45;;;;;;;4.02;69.09;99326.97;5026076;28;20109;-25
2022/04/09 03:46:46;;;;;;;3.85;3.03;;;;;;;4.01;69.36;99333.06;5028164;28;20032;-26
2022/04/09 03:49:12;;;;;;;4.43;2.80;;;;;;;4.02;69.47;99340.88;5022790;28;20450;-26
2022/04/09 03:51:37;;;;;;;5.57;3.30;;;;;;;4.02;69.44;99345.22;5021467;28;20132;-25
2022/04/09 03:54:03;;;;;;;5.68;3.10;;;;;;;4.04;69.05;99343.50;5022071;28;20056;-27
2022/04/09 03:56:28;;;;;;;4.47;2.85;;;;;;;4.04;69.49;99348.72;5017591;28;20022;-26
2022/04/09 03:58:54;;;;;;;6.10;3.38;;;;;;;4.05;69.11;99355.66;5024874;28;20079;-26
2022/04/09 04:01:24;;;;;;;6.35;3.20;;;;;;;4.05;69.41;99353.06;5021542;28;20055;-26
2022/04/09 04:03:50;;;;;;;3.65;2.83;;;;;;;4.05;69.55;99353.06;5023815;28;20056;-27
2022/04/09 04:06:15;;;;;;;6.25;3.10;;;;;;;4.06;69.00;99360.00;5023669;28;20112;-24
2022/04/09 04:08:41;;;;;;;4.47;2.90;;;;;;;4.08;69.05;99366.09;5028842;28;20099;-26
2022/04/09 04:11:06;;;;;;;8.20;3.15;;;;;;;4.08;69.51;99366.09;5029176;28;20029;-26
2022/04/09 04:13:35;;;;;;;6.60;3.67;;;;;;;4.09;69.28;99378.25;5022916;28;20031;-25
2022/04/09 04:16:03;;;;;;;6.57;3.17;;;;;;;4.08;69.49;99382.63;5023201;28;20021;-27
2022/04/09 04:18:28;;;;;;;7.18;3.03;;;;;;;4.09;69.22;99386.09;5022987;28;20471;-25
2022/04/09 04:20:54;;;;;;;5.45;2.83;;;;;;;4.08;69.68;99398.28;5027767;28;20022;-26
2022/04/09 04:23:20;;;;;;;7.07;3.70;;;;;;;4.11;69.88;99402.63;5022220;28;20064;-25
2022/04/09 04:25:45;;;;;;;5.38;3.10;;;;;;;4.12;70.05;99409.56;5028177;28;20038;-27
2022/04/09 04:28:11;;;;;;;7.15;3.17;;;;;;;4.13;69.42;99416.50;5025526;28;20026;-25
2022/04/09 04:30:36;;;;;;;6.82;4.15;;;;;;;4.14;69.82;99420.88;5023510;28;20281;-26
2022/04/09 04:33:02;;;;;;;6.90;3.15;;;;;;;4.14;69.81;99426.09;5023654;28;20029;-25
2022/04/09 04:35:27;;;;;;;7.63;3.35;;;;;;;4.15;69.86;99427.84;5027845;28;20034;-27
2022/04/09 04:37:54;;;;;;;4.72;3.13;;;;;;;4.17;69.67;99430.44;5018466;28;20507;-25
2022/04/09 04:40:19;;;;;;;7.45;3.08;;;;;;;4.16;69.71;99442.59;5022546;28;20065;-25
2022/04/09 04:42:45;;;;;;;7.88;3.15;;;;;;;4.18;69.91;99446.09;5016563;28;20459;-27
2022/04/09 04:45:11;;;;;;;9.30;3.90;;;;;;;4.17;69.75;99459.16;5024019;28;20034;-26
2022/04/09 04:47:42;;;;;;;5.65;3.60;;;;;;;4.18;69.50;99460.88;5023694;28;20053;-26
2022/04/09 04:50:08;;;;;;;6.88;3.00;;;;;;;4.21;69.39;99466.09;5023308;28;20033;-26
2022/04/09 04:52:34;;;;;;;6.93;3.63;;;;;;;4.20;69.10;99470.44;5018137;28;20029;-25
2022/04/09 04:54:59;;;;;;;7.63;4.95;;;;;;;4.20;69.46;99478.25;5024744;28;20026;-27
2022/04/09 04:57:24;;;;;;;6.30;4.60;;;;;;;4.23;69.26;99486.09;5025613;28;20722;-25
2022/04/09 04:59:50;;;;;;;7.85;5.07;;;;;;;4.20;69.72;99483.50;5025044;28;20064;-26
2022/04/09 05:02:15;;;;;;;6.53;4.90;;;;;;;4.20;69.33;99486.09;5021561;28;20124;-26
2022/04/09 05:04:41;;;;;;;7.25;6.13;;;;;;;4.23;68.91;99496.53;5021012;28;20022;-26
2022/04/09 05:07:06;;;;;;;7.80;5.32;;;;;;;4.23;69.33;99490.44;5023755;28;20044;-26
2022/04/09 05:09:34;;;;;;;8.25;6.00;;;;;;;4.25;69.50;99499.16;5024421;28;20071;-27
2022/04/09 05:11:59;;;;;;;10.13;6.93;;;;;;;4.26;69.34;99510.47;5026589;28;20025;-26
2022/04/09 05:14:24;;;;;;;6.72;5.95;;;;;;;4.27;69.38;99517.41;5021237;28;20025;-25
2022/04/09 05:16:50;;;;;;;7.93;6.30;;;;;;;4.27;69.07;99522.63;5022578;28;20040;-26
2022/04/09 05:19:15;;;;;;;9.00;6.47;;;;;;;4.27;68.84;99522.63;5020726;28;20125;-25
2022/04/09 05:21:42;;;;;;;10.95;6.32;;;;;;;4.28;69.22;99534.81;5020406;28;20140;-26
2022/04/09 05:24:08;;;;;;;10.88;7.30;;;;;;;4.28;69.34;99537.41;5026602;28;20497;-27
2022/04/09 05:26:33;;;;;;;8.75;6.65;;;;;;;4.28;69.00;99537.41;5026550;28;20036;-27
2022/04/09 05:28:59;;;;;;;8.73;7.40;;;;;;;4.29;68.97;99541.75;5026496;28;20032;-26
2022/04/09 05:31:27;;;;;;;10.18;7.32;;;;;;;4.29;68.89;99557.41;5023218;28;20372;-24
2022/04/09 05:33:54;;;;;;;9.25;6.95;;;;;;;4.30;68.82;99564.41;5025681;28;20048;-26
2022/04/09 05:36:19;;;;;;;7.18;6.10;;;;;;;4.30;69.10;99562.66;5021165;28;20033;-27
2022/04/09 05:38:45;;;;;;;10.88;6.65;;;;;;;4.31;69.11;99564.41;5011827;28;20361;-25
2022/04/09 05:41:10;;;;;;;6.93;6.25;;;;;;;4.33;69.53;99566.97;5029171;28;20025;-27
2022/04/09 05:43:36;;;;;;;7.82;6.78;;;;;;;4.34;69.34;99579.19;5025762;28;20503;-26
2022/04/09 05:46:01;;;;;;;9.43;6.35;;;;;;;4.34;69.07;99581.81;5027746;28;20469;-25
2022/04/09 05:48:27;;;;;;;7.72;6.72;;;;;;;4.34;69.76;99584.41;5028562;28;20036;-26
2022/04/09 05:50:52;;;;;;;9.88;6.68;;;;;;;4.34;69.47;99581.81;5021042;28;20379;-24
2022/04/09 05:53:18;;;;;;;11.88;6.32;;;;;;;4.36;69.73;99599.19;5019681;28;20083;-25
2022/04/09 05:55:43;;;;;;;8.63;6.75;;;;;;;4.36;69.29;99606.16;5017827;28;20029;-26
2022/04/09 05:58:09;;;;;;;10.38;6.50;;;;;;;4.37;69.68;99602.69;5018744;28;20057;-24
2022/04/09 06:00:35;;;;;;;6.13;5.53;;;;;;;4.39;69.53;99621.81;5017760;28;20113;-24
2022/04/09 06:03:01;;;;;;;7.53;6.53;;;;;;;4.41;69.69;99620.09;5017722;28;20495;-24
2022/04/09 06:05:27;;;;;;;8.63;6.45;;;;;;;4.41;69.67;99630.53;5015215;28;20068;-26
2022/04/09 06:07:53;;;;;;;9.55;5.90;;;;;;;4.42;69.97;99640.09;5017686;28;20220;-26
2022/04/09 06:10:19;;;;;;;7.93;5.40;;;;;;;4.44;69.96;99637.50;5017712;28;20025;-24
2022/04/09 06:12:45;;;;;;;8.85;6.00;;;;;;;4.45;69.75;99632.28;5014170;28;20870;-26
2022/04/09 06:15:10;;;;;;;8.38;5.35;;;;;;;4.46;70.24;99639.22;5018810;28;20108;-26
2022/04/09 06:17:37;;;;;;;6.28;4.95;;;;;;;4.47;70.29;99646.19;5015503;28;20377;-26
2022/04/09 06:20:04;;;;;;;7.30;5.25;;;;;;;4.50;69.95;99645.31;5017368;28;20172;-25
2022/04/09 06:22:30;;;;;;;10.25;4.88;;;;;;;4.52;70.12;99655.75;5017938;28;20029;-26
2022/04/09 06:24:55;;;;;;;6.13;4.80;;;;;;;4.53;70.14;99654.91;5016363;28;20026;-26
2022/04/09 06:27:21;;;;;;;9.57;4.65;;;;;;;4.53;70.39;99662.72;5018162;28;20036;-26
2022/04/09 06:29:46;;;;;;;7.25;4.43;;;;;;;4.55;70.69;99674.03;5023373;28;20029;-26
2022/04/09 06:32:12;;;;;;;9.18;4.47;;;;;;;4.58;71.03;99679.25;5026020;28;20025;-25
2022/04/09 06:34:37;;;;;;;6.63;4.78;;;;;;;4.60;70.19;99670.53;5024559;28;20053;-26
2022/04/09 06:37:04;;;;;;;8.93;5.53;;;;;;;4.63;70.81;99672.28;5030924;28;20317;-26
2022/04/09 06:39:29;;;;;;;5.05;4.00;;;;;;;4.67;70.91;99675.78;5026252;28;20035;-26
2022/04/09 06:41:55;;;;;;;6.10;4.50;;;;;;;4.68;71.48;99678.41;5031084;28;20395;-26
2022/04/09 06:44:20;;;;;;;4.70;4.18;;;;;;;4.70;70.52;99687.09;5024275;28;20037;-26
2022/04/09 06:46:46;;;;;;;6.10;3.90;;;;;;;4.74;70.44;99683.59;5025073;28;20022;-26
2022/04/09 06:49:15;;;;;;;6.95;3.97;;;;;;;4.76;70.62;99686.19;5023562;28;20036;-25
2022/04/09 06:51:42;;;;;;;10.80;5.00;;;;;;;4.78;70.68;99686.22;5030020;28;20021;-27
2022/04/09 06:54:08;;;;;;;6.43;4.05;;;;;;;4.81;70.86;99697.53;5027314;28;20025;-26
2022/04/09 06:56:33;;;;;;;5.47;3.70;;;;;;;4.85;70.25;99701.00;5024105;28;20083;-25
2022/04/09 06:59:00;;;;;;;5.45;3.75;;;;;;;4.90;70.59;99701.84;5021973;28;20037;-25
2022/04/09 07:01:26;;;;;;;8.23;3.75;;;;;;;4.96;70.66;99707.09;5018933;28;20046;-25
2022/04/09 07:03:52;;;;;;;7.57;3.17;;;;;;;5.00;70.42;99697.47;5026862;28;20025;-26
2022/04/09 07:06:17;;;;;;;7.07;3.70;;;;;;;5.06;70.14;99707.06;5028668;28;20399;-25
2022/04/09 07:08:43;;;;;;;8.98;4.35;;;;;;;5.09;70.56;99718.41;5022773;28;20071;-25
2022/04/09 07:11:09;;;;;;;5.95;3.97;;;;;;;5.16;70.44;99716.63;5019305;28;20091;-26
2022/04/09 07:13:34;;;;;;;9.82;3.28;;;;;;;5.20;69.80;99720.13;5018002;28;20025;-24
2022/04/09 07:16:00;;;;;;;7.55;4.30;;;;;;;5.23;70.11;99725.31;5016659;28;20021;-23
2022/04/09 07:18:25;;;;;;;4.97;4.03;;;;;;;5.28;69.77;99720.97;5020966;28;20365;-25
2022/04/09 07:20:51;;;;;;;6.72;3.75;;;;;;;5.31;69.85;99733.16;5026786;28;20032;-25
2022/04/09 07:23:16;;;;;;;6.53;3.80;;;;;;;5.35;69.44;99740.13;5024208;28;20021;-25
2022/04/09 07:25:42;;;;;;;7.18;3.05;;;;;;;5.37;68.95;99727.94;5020831;28;20037;-26
2022/04/09 07:28:09;;;;;;;5.53;3.47;;;;;;;5.39;69.32;99731.38;5021679;28;20053;-25
2022/04/09 07:30:35;;;;;;;4.32;3.38;;;;;;;5.42;68.71;99741.84;5021993;28;20053;-23
2022/04/09 07:33:01;;;;;;;6.75;3.75;;;;;;;5.45;69.02;99747.06;5023380;28;20113;-26
2022/04/09 07:35:27;;;;;;;7.35;3.33;;;;;;;5.50;68.66;99752.28;5025616;28;20312;-24
2022/04/09 07:37:58;;;;;;;4.93;3.20;;;;;;;5.52;68.65;99754.03;5027026;28;20025;-24
2022/04/09 07:40:27;;;;;;;3.28;2.78;;;;;;;5.57;68.21;99750.53;5026477;28;20083;-25
2022/04/09 07:42:53;;;;;;;7.75;3.45;;;;;;;5.56;68.09;99749.66;5020772;28;20413;-26
2022/04/09 07:45:19;;;;;;;3.05;2.80;;;;;;;5.60;68.42;99756.59;5022894;28;20025;-25
2022/04/09 07:47:45;;;;;;;5.68;2.80;;;;;;;5.63;68.27;99766.19;5019584;28;20044;-25
2022/04/09 07:50:11;;;;;;;5.70;3.35;;;;;;;5.65;68.45;99777.53;5026269;28;20052;-25
2022/04/09 07:52:39;;;;;;;3.30;2.90;;;;;;;5.65;67.89;99773.19;5026279;28;20036;-26
2022/04/09 07:55:09;;;;;;;8.15;3.80;;;;;;;5.68;68.22;99774.91;5028268;28;20634;-26
2022/04/09 07:57:34;;;;;;;4.43;3.13;;;;;;;5.73;68.35;99785.34;5029252;28;20033;-24
2022/04/09 08:00:00;;;;;;;5.38;3.15;;;;;;;5.76;68.55;99782.72;5026854;28;20018;-25
2022/04/09 08:02:25;;;;;;;3.78;2.70;;;;;;;5.79;68.31;99785.31;5023861;28;20083;-25
2022/04/09 08:04:51;;;;;;;5.85;3.53;;;;;;;5.85;67.76;99777.47;5023625;28;20060;-25
2022/04/09 08:07:17;;;;;;;4.97;3.10;;;;;;;5.89;67.98;99788.78;5027296;28;20671;-25
2022/04/09 08:09:45;;;;;;;6.35;3.10;;;;;;;5.91;67.76;99793.13;5025928;28;20021;-25
2022/04/09 08:12:15;;;;;;;5.57;2.75;;;;;;;5.96;67.68;99794.84;5026230;28;20384;-25
2022/04/09 08:14:41;;;;;;;5.45;2.78;;;;;;;5.97;67.01;99794.84;5029450;28;20021;-25
2022/04/09 08:17:07;;;;;;;5.95;2.50;;;;;;;6.00;66.91;99802.69;5023633;28;20031;-26
2022/04/09 08:19:34;;;;;;;4.18;2.53;;;;;;;6.04;67.11;99808.81;5018855;28;20029;-24
2022/04/09 08:22:00;;;;;;;3.78;2.28;;;;;;;6.08;67.19;99809.66;5023634;28;20065;-25
2022/04/09 08:24:25;;;;;;;4.72;2.60;;;;;;;6.09;66.71;99811.41;5027962;28;20546;-24
2022/04/09 08:26:51;;;;;;;5.80;2.80;;;;;;;6.11;67.29;99817.50;5024844;28;20494;-25
2022/04/09 08:29:19;;;;;;;4.68;3.25;;;;;;;6.14;66.75;99815.75;5019062;28;20025;-25
2022/04/09 08:31:47;;;;;;;4.90;2.95;;;;;;;6.16;66.84;99821.84;5021440;28;20029;-25
2022/04/09 08:34:13;;;;;;;4.63;2.35;;;;;;;6.19;66.63;99839.28;5022415;28;20519;-26
2022/04/09 08:36:39;;;;;;;5.05;2.38;;;;;;;6.21;66.71;99839.28;5018697;28;20088;-27
2022/04/09 08:39:04;;;;;;;6.18;2.30;;;;;;;6.21;67.13;99836.66;5028299;28;20021;-25
2022/04/09 08:41:30;;;;;;;5.10;2.40;;;;;;;6.20;67.53;99834.94;5024895;28;20029;-26
2022/04/09 08:43:56;;;;;;;6.18;2.75;;;;;;;6.21;67.21;99831.44;5023542;28;20495;-26
2022/04/09 08:46:24;;;;;;;3.17;2.28;;;;;;;6.26;68.01;99841.00;5025180;28;20028;-24
2022/04/09 08:48:50;;;;;;;4.63;2.63;;;;;;;6.33;67.75;99841.00;5024775;28;20025;-26
2022/04/09 08:51:15;;;;;;;4.10;2.85;;;;;;;6.44;67.67;99841.81;5027660;28;20048;-27
2022/04/09 08:53:42;;;;;;;5.25;2.38;;;;;;;6.52;68.17;99850.50;5020745;28;20035;-24
2022/04/09 08:56:08;;;;;;;5.72;2.78;;;;;;;6.57;67.35;99845.19;5021054;28;20076;-27
2022/04/09 08:58:34;;;;;;;4.20;2.28;;;;;;;6.60;66.76;99845.19;5022828;28;20025;-23
2022/04/09 09:00:59;;;;;;;2.20;2.00;;;;;;;6.66;66.38;99852.13;5021603;28;20033;-25
2022/04/09 09:03:25;;;;;;;3.63;2.13;;;;;;;6.76;67.15;99851.22;5024603;28;20112;-25
2022/04/09 09:05:52;;;;;;;3.28;2.10;;;;;;;6.81;67.36;99853.81;5018563;28;20025;-25
2022/04/09 09:08:35;;;;;;;2.50;2.17;;;;;;;6.92;67.05;99851.97;5018961;28;20052;-26
2022/04/09 09:11:00;;;;;;;3.40;2.22;;;;;;;6.97;65.63;99854.56;5020721;28;20034;-26
2022/04/09 09:13:25;;;;;;;3.25;1.85;;;;;;;7.03;64.44;99856.25;5007417;28;20060;-26
2022/04/09 09:15:53;;;;;;;3.35;2.03;;;;;;;7.10;64.36;99860.56;5026361;28;20030;-26
2022/04/09 09:18:28;;;;;;;2.90;2.17;;;;;;;7.20;65.22;99856.13;5026263;28;20033;-26
2022/04/09 09:20:58;;;;;;;3.22;1.92;;;;;;;7.31;64.72;99863.91;5027534;28;20033;-26
2022/04/09 09:23:24;;;;;;;3.03;1.77;;;;;;;7.39;63.35;99862.09;5029065;28;20037;-25
2022/04/09 09:25:51;;;;;;;1.65;1.55;;;;;;;7.54;63.46;99860.22;5029153;28;20075;-25
2022/04/09 09:28:42;;;;;;;3.13;2.03;;;;;;;8.14;63.91;99866.56;5029034;28;20101;-24
2022/04/09 09:31:08;;;;;;;11.73;2.38;;;;;;;8.51;64.71;99870.50;5027112;28;20069;-25
2022/04/09 09:33:35;;;;;;;27.80;3.72;;;;;;;8.80;64.78;99871.00;5023562;28;20060;-24
2022/04/09 09:36:01;;;;;;;10.98;2.97;;;;;;;8.98;61.61;99875.97;5029753;28;20029;-24
2022/04/09 09:38:28;;;;;;;3.65;1.70;;;;;;;8.75;60.02;99870.19;5022518;28;20037;-23
2022/04/09 09:40:55;;;;;;;6.82;2.47;;;;;;;8.68;59.70;99875.56;5023981;28;20040;-25
2022/04/09 09:43:25;;;;;;;3.22;2.13;;;;;;;8.65;60.20;99883.47;5018761;28;20057;-24
2022/04/09 09:45:52;;;;;;;2.20;1.50;;;;;;;8.63;59.15;99873.88;5020814;28;20458;-26
2022/04/09 09:48:28;;;;;;;1.88;1.52;;;;;;;8.67;59.56;99888.72;5027256;28;20026;-24
2022/04/09 09:50:56;;;;;;;2.47;2.22;;;;;;;8.67;59.68;99873.78;5019662;28;20033;-23
2022/04/09 09:53:32;;;;;;;2.20;1.50;;;;;;;8.66;59.57;99873.81;5020183;28;20108;-25
2022/04/09 09:55:59;;;;;;;3.60;1.60;;;;;;;8.72;60.24;99866.72;5019295;28;20028;-26
2022/04/09 09:58:26;;;;;;;3.80;2.17;;;;;;;8.75;59.71;99860.53;5017890;28;20036;-26
2022/04/09 10:00:52;;;;;;;1.83;1.65;;;;;;;8.84;60.04;99864.81;5018714;28;20026;-26
2022/04/09 10:03:18;;;;;;;4.25;1.85;;;;;;;8.90;58.85;99880.47;5018107;28;20033;-25
2022/04/09 10:05:47;;;;;;;4.43;1.70;;;;;;;8.92;57.46;99865.56;5019896;28;21047;-24
2022/04/09 10:08:12;;;;;;;2.40;1.52;;;;;;;8.93;56.53;99877.81;5027849;28;20086;-25
2022/04/09 10:10:41;;;;;;;3.88;1.55;;;;;;;8.95;56.13;99875.16;5029268;28;20033;-24
2022/04/09 10:13:07;;;;;;;2.00;1.80;;;;;;;8.97;56.25;99878.66;5030558;28;20088;-24
2022/04/09 10:15:33;;;;;;;1.63;1.38;;;;;;;9.02;56.05;99874.16;5027547;28;20307;-24
2022/04/09 10:18:00;;;;;;;3.47;1.60;;;;;;;9.02;54.54;99874.16;5027383;28;20040;-25
2022/04/09 10:20:26;;;;;;;1.42;1.33;;;;;;;9.04;54.51;99877.63;5025922;28;20484;-25
2022/04/09 10:22:56;;;;;;;1.42;1.33;;;;;;;9.05;54.33;99881.13;5027865;28;20034;-24
2022/04/09 10:25:24;;;;;;;3.25;1.52;;;;;;;9.07;54.44;99867.06;5025998;28;20037;-24
2022/04/09 10:27:53;;;;;;;1.38;1.27;;;;;;;9.14;55.25;99872.25;5008676;28;20067;-24
2022/04/09 10:30:21;;;;;;;1.98;1.40;;;;;;;9.09;54.25;99875.81;5024862;28;20026;-24
2022/04/09 10:32:54;;;;;;;2.70;1.20;;;;;;;9.11;53.78;99881.91;5024712;28;20033;-25
2022/04/09 10:35:26;;;;;;;3.15;1.38;;;;;;;9.14;53.68;99880.13;5026879;28;20490;-24
2022/04/09 10:38:07;;;;;;;2.58;1.45;;;;;;;9.10;53.50;99885.44;5026657;28;20442;-24
2022/04/09 10:40:45;;;;;;;1.42;1.33;;;;;;;9.18;53.56;99887.06;5020475;28;20075;-24
2022/04/09 10:43:37;;;;;;;2.88;1.50;;;;;;;9.23;53.42;99877.34;5032005;28;20464;-23
2022/04/09 10:46:02;;;;;;;5.20;1.67;;;;;;;9.28;53.86;99872.88;5024018;28;20026;-25
2022/04/09 10:48:34;;;;;;;1.83;1.38;;;;;;;9.38;53.90;99884.13;5024627;28;20162;-24
2022/04/09 10:51:02;;;;;;;2.67;1.67;;;;;;;9.46;53.44;99876.09;5020160;28;20034;-24
2022/04/09 10:53:29;;;;;;;2.72;1.63;;;;;;;9.48;52.39;99879.56;5025351;28;20253;-24
2022/04/09 10:56:20;;;;;;;4.45;1.88;;;;;;;9.55;51.62;99870.69;5025178;28;20033;-22
2022/04/09 10:59:05;;;;;;;4.30;2.17;;;;;;;9.61;51.53;99881.06;5021531;28;20032;-23
2022/04/09 11:01:46;;;;;;;1.80;1.33;;;;;;;9.72;52.09;99877.38;5023459;28;20041;-24
2022/04/09 11:07:01;;;;;;;4.80;1.90;;;;;;;9.85;52.03;99880.66;5022027;28;20124;-24
2022/04/09 11:09:42;;;;;;;4.50;1.88;;;;;;;9.81;49.77;99879.88;5039294;28;20040;-23
2022/04/09 11:12:07;;;;;;;2.03;1.73;;;;;;;9.88;49.28;99876.19;5025588;28;20065;-23
2022/04/09 11:14:43;;;;;;;3.65;1.23;;;;;;;9.91;48.94;99874.41;5020811;28;20164;-23
2022/04/09 11:17:15;;;;;;;3.70;1.30;;;;;;;9.96;48.43;99881.34;5024344;28;20033;-24
2022/04/09 11:19:42;;;;;;;2.75;1.77;;;;;;;10.00;49.32;99879.50;5019045;28;20030;-23
2022/04/09 11:22:09;;;;;;;4.40;1.20;;;;;;;10.09;50.12;99863.53;5019707;28;20037;-24
2022/04/09 11:24:38;;;;;;;3.70;1.55;;;;;;;10.15;50.04;99873.06;5023496;28;20068;-23
2022/04/09 11:27:04;;;;;;;1.70;1.23;;;;;;;10.26;49.88;99879.00;5021052;28;20022;-24
2022/04/09 11:29:36;;;;;;;2.70;1.60;;;;;;;10.34;49.73;99893.78;5019968;28;20383;-23
2022/04/09 11:32:02;;;;;;;3.17;1.67;;;;;;;10.44;49.90;99886.53;5017901;28;20018;-23
2022/04/09 11:34:28;;;;;;;4.13;2.40;;;;;;;10.46;49.70;99884.75;5020301;28;20099;-24
2022/04/09 11:37:10;;;;;;;5.28;1.92;;;;;;;10.55;50.70;99896.88;5019344;28;20025;-23
2022/04/09 11:39:39;;;;;;;2.50;1.48;;;;;;;10.57;51.07;99898.56;5021363;28;20499;-24
2022/04/09 11:42:06;;;;;;;3.08;1.58;;;;;;;10.64;50.43;99901.97;5021845;28;20043;-24